Time;durP1;ratioP1;P1;durP2;ratioP2;P2;SDS_P1;SDS_P2;PMS_P1;PMS_P2;Temp;Humidity;BMP_temperature;BMP_pressure;BME280_temperature;BME280_humidity;BME280_pressure;Samples;Min_cycle;Max_cycle;Signal;HPM_P1;HPM_P2
2023/01/14 00:02:30;;;;;;;0.80;0.80;;;9.00;40.80;;;;;;10427880;28;20235;-80
2023/01/14 00:07:33;;;;;;;2.57;1.07;;;9.00;40.80;;;;;;10427061;28;20233;-80
2023/01/14 00:12:37;;;;;;;2.30;0.90;;;9.00;40.60;;;;;;10432380;28;20237;-80
2023/01/14 00:17:40;;;;;;;1.47;0.80;;;8.90;40.60;;;;;;10456600;28;20632;-80
2023/01/14 00:22:44;;;;;;;3.50;1.10;;;8.90;40.70;;;;;;10425970;28;20229;-80
2023/01/14 00:27:48;;;;;;;1.90;1.00;;;8.90;40.80;;;;;;10448782;28;20295;-80
2023/01/14 00:32:51;;;;;;;1.83;1.00;;;8.90;41.00;;;;;;10457340;28;20250;-80
2023/01/14 00:37:56;;;;;;;2.47;1.00;;;8.90;40.90;;;;;;10456115;28;20750;-80
2023/01/14 00:43:01;;;;;;;1.40;0.83;;;8.90;40.80;;;;;;10454714;28;20244;-80
2023/01/14 00:48:04;;;;;;;2.27;1.00;;;9.00;41.00;;;;;;10454325;28;20229;-80
2023/01/14 00:53:07;;;;;;;1.80;0.87;;;9.00;40.90;;;;;;10435394;28;20236;-80
2023/01/14 00:58:12;;;;;;;1.83;0.90;;;9.00;41.00;;;;;;10443513;28;20233;-80
2023/01/14 01:03:16;;;;;;;4.27;1.10;;;9.00;41.10;;;;;;10456460;28;20252;-80
2023/01/14 01:08:20;;;;;;;4.73;1.10;;;9.00;41.10;;;;;;10456246;28;20229;-80
2023/01/14 01:13:25;;;;;;;3.83;2.30;;;9.00;41.10;;;;;;10447571;28;20259;-80
2023/01/14 01:18:28;;;;;;;3.53;1.70;;;9.00;41.10;;;;;;10451941;28;20229;-79
2023/01/14 08:05:26;;;;;;;3.60;2.03;;;7.30;43.70;;;;;;10428837;28;20225;-80
2023/01/14 08:10:29;;;;;;;3.57;1.70;;;7.40;43.50;;;;;;10438185;28;20230;-80
2023/01/14 08:15:32;;;;;;;4.60;1.80;;;7.50;42.70;;;;;;10431791;28;20240;-80
2023/01/14 08:20:37;;;;;;;3.53;1.70;;;7.50;42.60;;;;;;10452696;28;20279;-80
2023/01/14 08:25:42;;;;;;;3.97;1.80;;;7.60;42.90;;;;;;10435662;28;20241;-79
2023/01/14 08:30:45;;;;;;;4.03;2.17;;;7.60;42.70;;;;;;10442454;28;20224;-79
2023/01/14 08:35:49;;;;;;;4.47;2.27;;;7.60;43.00;;;;;;10450793;28;20225;-80
2023/01/14 08:40:54;;;;;;;3.27;2.30;;;7.60;43.20;;;;;;10440089;28;20225;-80
2023/01/14 08:45:57;;;;;;;4.10;2.60;;;7.70;43.00;;;;;;10451185;28;20236;-81
2023/01/14 08:51:02;;;;;;;5.30;2.93;;;7.90;43.50;;;;;;10441338;28;20662;-81
2023/01/14 08:56:08;;;;;;;5.83;2.80;;;8.00;43.40;;;;;;10438225;28;21023;-80
2023/01/14 09:01:12;;;;;;;5.53;2.33;;;8.20;43.40;;;;;;10433613;28;20229;-79
2023/01/14 09:06:18;;;;;;;3.00;2.03;;;8.40;43.20;;;;;;10433328;28;20737;-79
2023/01/14 09:17:05;;;;;;;2.97;1.73;;;8.70;43.40;;;;;;10404299;28;20233;-78
2023/01/14 09:22:13;;;;;;;6.13;2.10;;;8.90;43.30;;;;;;10434193;28;20875;-78
2023/01/14 09:27:17;;;;;;;5.40;1.90;;;9.00;43.20;;;;;;10434994;28;20240;-78
2023/01/14 09:32:20;;;;;;;4.93;1.70;;;9.20;43.00;;;;;;10423951;28;20221;-77
2023/01/14 09:37:25;;;;;;;4.73;2.07;;;9.30;43.60;;;;;;10443319;28;20236;-78
2023/01/14 09:42:30;;;;;;;6.90;3.10;;;9.50;43.00;;;;;;10435847;28;20331;-78
2023/01/14 09:47:34;;;;;;;6.00;2.07;;;9.70;43.00;;;;;;10434877;28;20224;-77
2023/01/14 09:53:03;;;;;;;5.70;1.77;;;9.80;42.60;;;;;;10422306;28;20233;-78
2023/01/14 09:58:13;;;;;;;5.20;2.20;;;10.00;41.30;;;;;;10420511;28;20236;-76
2023/01/14 10:03:25;;;;;;;3.87;1.80;;;10.10;40.90;;;;;;10435450;28;20279;-76
2023/01/14 10:08:34;;;;;;;6.03;3.10;;;10.10;41.00;;;;;;10436869;28;20229;-75
2023/01/14 10:13:42;;;;;;;4.63;1.73;;;10.20;41.00;;;;;;10421296;28;20237;-75
2023/01/14 10:18:52;;;;;;;3.67;1.53;;;10.30;40.90;;;;;;10424908;28;20642;-75
2023/01/14 10:23:58;;;;;;;5.17;2.17;;;10.40;40.80;;;;;;10439270;28;20744;-75
2023/01/14 10:29:10;;;;;;;5.47;1.77;;;10.40;40.70;;;;;;10434070;28;20225;-75
2023/01/14 10:34:17;;;;;;;4.87;2.30;;;10.40;40.30;;;;;;10427927;28;20689;-75
2023/01/14 10:39:22;;;;;;;3.00;2.10;;;10.50;40.70;;;;;;10433698;28;20237;-75
2023/01/14 10:44:29;;;;;;;4.33;1.50;;;10.60;40.50;;;;;;10435790;28;20229;-75
2023/01/14 10:49:37;;;;;;;5.20;2.10;;;10.60;40.50;;;;;;10439220;28;20235;-76
2023/01/14 10:54:57;;;;;;;6.63;1.80;;;10.80;41.60;;;;;;10434867;28;20795;-76
2023/01/14 11:00:01;;;;;;;4.83;1.70;;;10.90;40.70;;;;;;10434773;28;20232;-75
2023/01/14 11:05:06;;;;;;;6.20;1.90;;;11.00;40.80;;;;;;10444481;28;20268;-75
2023/01/14 11:10:22;;;;;;;4.53;1.97;;;11.10;40.90;;;;;;10436278;28;20236;-76
2023/01/14 11:15:37;;;;;;;2.83;1.67;;;11.20;40.50;;;;;;10437130;28;20254;-79
2023/01/14 11:20:41;;;;;;;3.77;1.60;;;11.30;40.60;;;;;;10443756;28;20320;-78
2023/01/14 11:25:50;;;;;;;4.83;1.70;;;11.40;40.50;;;;;;10438158;28;20295;-77
2023/01/14 11:30:54;;;;;;;5.57;3.00;;;11.50;40.40;;;;;;10441673;28;20577;-78
2023/01/14 11:35:58;;;;;;;7.00;4.07;;;11.60;40.60;;;;;;10440941;28;20232;-78
2023/01/14 11:46:24;;;;;;;6.23;4.10;;;11.70;40.00;;;;;;10432959;28;20248;-78
2023/01/14 11:51:29;;;;;;;5.77;2.93;;;11.70;40.30;;;;;;10439384;28;20233;-78
2023/01/14 11:56:37;;;;;;;4.70;2.40;;;11.80;40.40;;;;;;10432209;28;20233;-78
2023/01/14 12:01:44;;;;;;;3.53;2.10;;;11.80;39.40;;;;;;10429362;28;20228;-78
2023/01/14 12:06:51;;;;;;;3.23;1.70;;;11.90;40.40;;;;;;10436984;28;20235;-77
2023/01/14 12:12:01;;;;;;;2.30;1.60;;;11.90;39.60;;;;;;10434386;28;20229;-78
2023/01/14 12:17:09;;;;;;;3.73;2.00;;;11.90;39.40;;;;;;10425783;28;20717;-78
2023/01/14 12:22:18;;;;;;;3.60;1.50;;;12.00;39.70;;;;;;10429054;28;20225;-77
2023/01/14 12:27:44;;;;;;;5.13;1.90;;;12.00;39.20;;;;;;10441085;28;20233;-78
2023/01/14 12:32:53;;;;;;;2.70;1.60;;;12.00;39.30;;;;;;10420670;28;20229;-78
2023/01/14 12:37:59;;;;;;;2.20;1.43;;;12.10;39.10;;;;;;10428388;28;20794;-78
2023/01/14 12:48:27;;;;;;;3.23;1.63;;;12.20;39.30;;;;;;10437117;28;20239;-78
2023/01/14 12:53:34;;;;;;;3.70;1.60;;;12.20;39.20;;;;;;10421549;28;20241;-79
2023/01/14 12:58:41;;;;;;;3.10;1.90;;;12.20;39.10;;;;;;10430852;28;20240;-77
2023/01/14 13:03:52;;;;;;;3.83;1.43;;;12.30;39.00;;;;;;10425224;28;20316;-78
2023/01/14 13:08:58;;;;;;;3.10;1.27;;;12.40;38.50;;;;;;10440386;28;20221;-78
2023/01/14 13:14:04;;;;;;;2.00;1.30;;;12.40;38.50;;;;;;10430994;28;20239;-78
2023/01/14 13:19:35;;;;;;;2.10;1.17;;;12.40;38.50;;;;;;10432786;28;20228;-76
2023/01/14 13:24:59;;;;;;;1.90;1.40;;;12.50;38.00;;;;;;10430974;28;20230;-75
2023/01/14 13:30:39;;;;;;;1.93;1.10;;;12.50;38.20;;;;;;10421976;28;20719;-75
2023/01/14 13:36:19;;;;;;;2.63;1.20;;;12.50;37.20;;;;;;10427477;28;20237;-75
2023/01/14 13:41:41;;;;;;;1.23;0.93;;;12.60;37.90;;;;;;10429710;28;20232;-74
2023/01/14 13:46:50;;;;;;;2.03;1.13;;;12.60;37.50;;;;;;10418134;28;20238;-78
2023/01/14 13:52:00;;;;;;;1.60;1.03;;;12.60;37.90;;;;;;10421821;28;20232;-76
2023/01/14 13:57:14;;;;;;;1.57;1.20;;;12.70;37.60;;;;;;10427294;28;20232;-77
2023/01/14 14:02:41;;;;;;;1.90;1.40;;;12.70;37.60;;;;;;10426046;28;20229;-76
2023/01/14 14:08:06;;;;;;;1.43;1.27;;;12.70;37.40;;;;;;10441525;28;22338;-75
2023/01/14 14:18:38;;;;;;;2.87;1.70;;;12.70;37.20;;;;;;10416014;28;20233;-74
2023/01/14 14:23:47;;;;;;;2.60;2.40;;;12.70;37.70;;;;;;10425876;28;20885;-76
2023/01/14 14:28:53;;;;;;;2.30;1.70;;;12.70;37.50;;;;;;10432809;28;20714;-80
2023/01/14 14:34:05;;;;;;;1.70;1.30;;;12.70;37.40;;;;;;10426102;28;20614;-77
2023/01/14 14:39:25;;;;;;;3.30;2.90;;;12.70;36.80;;;;;;10423026;28;20313;-77
2023/01/14 14:44:30;;;;;;;3.47;3.17;;;12.70;36.80;;;;;;10425975;28;20233;-78
2023/01/14 14:49:37;;;;;;;4.00;2.30;;;12.70;37.40;;;;;;10419799;28;20233;-77
2023/01/14 14:54:42;;;;;;;1.83;1.70;;;12.70;37.20;;;;;;10428094;28;20236;-78
2023/01/14 14:59:46;;;;;;;2.07;1.90;;;12.80;37.10;;;;;;10418540;28;20689;-79
2023/01/14 15:04:52;;;;;;;2.53;2.33;;;12.80;37.50;;;;;;10432482;28;20240;-79
2023/01/14 15:09:59;;;;;;;2.60;2.00;;;12.80;36.80;;;;;;10435656;28;20235;-78
2023/01/14 15:15:16;;;;;;;2.43;1.87;;;12.70;36.80;;;;;;10433498;28;20237;-80
2023/01/14 15:20:30;;;;;;;5.33;1.70;;;12.70;36.80;;;;;;10436713;28;20236;-79
2023/01/14 15:50:58;;;;;;;4.47;4.10;;;12.50;36.00;;;;;;10433929;28;20221;-78
2023/01/14 15:56:06;;;;;;;2.70;2.50;;;12.50;36.00;;;;;;10426212;28;20224;-77
2023/01/14 16:01:18;;;;;;;2.77;2.23;;;12.40;36.10;;;;;;10420281;28;20233;-78
2023/01/14 16:06:32;;;;;;;2.83;1.90;;;12.40;35.50;;;;;;10412061;28;20737;-77
2023/01/14 16:11:38;;;;;;;1.90;1.80;;;12.40;35.70;;;;;;10419479;28;20229;-77
2023/01/14 16:16:42;;;;;;;2.03;1.80;;;12.30;35.90;;;;;;10429972;28;20235;-77
2023/01/14 16:21:46;;;;;;;2.90;2.27;;;12.30;36.40;;;;;;10443056;28;20233;-77
2023/01/14 16:26:50;;;;;;;2.67;2.40;;;12.20;35.90;;;;;;10442740;28;20617;-77
2023/01/14 16:31:53;;;;;;;2.67;1.97;;;12.20;36.30;;;;;;10452422;28;20225;-77
2023/01/14 16:36:57;;;;;;;2.17;1.90;;;12.10;36.20;;;;;;10452555;28;20237;-77
2023/01/14 16:42:02;;;;;;;2.10;1.90;;;12.10;36.10;;;;;;10449733;28;20240;-77
2023/01/14 16:47:05;;;;;;;2.33;2.13;;;12.00;36.00;;;;;;10463069;28;20232;-77
2023/01/14 16:52:11;;;;;;;3.50;2.70;;;11.90;36.10;;;;;;10480092;28;20237;-77
2023/01/14 16:57:16;;;;;;;3.43;3.13;;;11.90;35.70;;;;;;10438406;28;20268;-78
2023/01/14 17:02:21;;;;;;;4.43;3.63;;;11.90;35.90;;;;;;10435738;28;20228;-78
2023/01/14 17:07:25;;;;;;;4.00;3.70;;;11.90;36.30;;;;;;10432475;28;20229;-78
2023/01/14 17:12:41;;;;;;;5.13;4.63;;;11.90;35.90;;;;;;10434999;28;20233;-78
2023/01/14 17:17:45;;;;;;;42.00;37.80;;;12.00;36.20;;;;;;10443979;28;20236;-78
2023/01/14 17:22:49;;;;;;;53.73;42.90;;;11.90;36.10;;;;;;10438065;28;20780;-78
2023/01/14 17:27:55;;;;;;;75.77;47.57;;;11.90;36.20;;;;;;10432365;28;20220;-78
2023/01/14 17:32:58;;;;;;;60.07;38.20;;;11.90;36.10;;;;;;10440406;28;20239;-78
2023/01/14 17:38:03;;;;;;;56.33;37.47;;;11.90;36.30;;;;;;10451608;28;20609;-78
2023/01/14 17:43:07;;;;;;;61.60;55.13;;;11.90;36.30;;;;;;10451674;28;20240;-78
2023/01/14 17:48:11;;;;;;;36.27;32.57;;;11.90;36.40;;;;;;10446036;28;20233;-78
2023/01/14 17:53:15;;;;;;;11.43;9.50;;;11.80;36.60;;;;;;10447089;28;20240;-77
2023/01/14 17:58:18;;;;;;;8.30;7.50;;;11.80;36.40;;;;;;10442930;28;20236;-78
2023/01/14 18:03:22;;;;;;;5.30;4.80;;;11.80;36.30;;;;;;10442104;28;20244;-79
2023/01/14 18:08:26;;;;;;;4.70;4.23;;;11.70;36.50;;;;;;10445183;28;20231;-78
2023/01/14 18:13:30;;;;;;;7.47;6.47;;;11.60;36.80;;;;;;10442768;28;20241;-80
2023/01/14 18:18:35;;;;;;;5.73;5.17;;;11.50;36.80;;;;;;10440873;28;20238;-79
2023/01/14 18:23:44;;;;;;;4.10;3.70;;;11.50;36.70;;;;;;10434726;28;20236;-80
2023/01/14 18:28:52;;;;;;;3.90;2.60;;;11.50;36.60;;;;;;10445074;28;20252;-80
2023/01/14 18:33:56;;;;;;;4.23;3.20;;;11.40;36.80;;;;;;10448930;28;20228;-80
2023/01/14 18:39:03;;;;;;;4.33;3.50;;;11.50;36.90;;;;;;10449756;28;20718;-82
2023/01/14 18:44:06;;;;;;;3.53;3.03;;;11.40;37.10;;;;;;10448865;28;20233;-79
2023/01/14 18:49:10;;;;;;;3.27;2.80;;;11.30;37.30;;;;;;10438503;28;20240;-80
2023/01/14 18:54:15;;;;;;;4.57;3.20;;;11.20;37.30;;;;;;10441673;28;20229;-80
2023/01/14 18:59:18;;;;;;;3.50;3.00;;;11.20;37.50;;;;;;10437047;28;20236;-80
2023/01/14 19:04:21;;;;;;;2.70;2.50;;;11.20;37.70;;;;;;10440759;28;21775;-81
2023/01/14 19:09:26;;;;;;;3.20;2.90;;;11.10;37.70;;;;;;10443677;28;20236;-81
2023/01/14 19:14:29;;;;;;;2.70;2.30;;;11.10;37.90;;;;;;10445766;28;20238;-81
2023/01/14 19:19:32;;;;;;;2.10;1.80;;;11.00;37.80;;;;;;10438247;28;20233;-80
2023/01/14 19:24:37;;;;;;;2.70;1.73;;;10.90;38.00;;;;;;10438268;28;20234;-80
2023/01/14 19:29:40;;;;;;;3.43;1.90;;;10.90;38.20;;;;;;10437181;28;20262;-80
2023/01/14 19:34:43;;;;;;;2.10;1.73;;;10.90;38.30;;;;;;10435338;28;20582;-80
2023/01/14 19:39:48;;;;;;;1.40;1.30;;;10.90;38.50;;;;;;10445436;28;20236;-80
2023/01/14 19:44:51;;;;;;;2.23;1.60;;;10.90;38.80;;;;;;10439216;28;20716;-80
2023/01/14 19:49:54;;;;;;;2.63;1.57;;;10.90;38.80;;;;;;10432964;28;20225;-80
2023/01/14 19:54:59;;;;;;;1.67;1.53;;;11.00;39.00;;;;;;10434095;28;20235;-80
2023/01/14 20:00:03;;;;;;;2.93;1.40;;;11.00;39.40;;;;;;10441320;28;20232;-80
2023/01/14 20:05:06;;;;;;;1.50;1.40;;;11.00;39.40;;;;;;10441869;28;20229;-81
2023/01/14 20:10:11;;;;;;;1.40;1.30;;;11.00;39.80;;;;;;10435533;28;20239;-80
2023/01/14 20:15:15;;;;;;;1.40;1.30;;;11.00;40.10;;;;;;10436266;28;20232;-80
2023/01/14 20:20:19;;;;;;;3.00;1.80;;;11.00;39.90;;;;;;10432978;28;20259;-81
2023/01/14 20:25:24;;;;;;;1.40;1.30;;;11.00;40.00;;;;;;10440735;28;20237;-80
2023/01/14 20:30:27;;;;;;;1.30;1.20;;;11.10;40.40;;;;;;10433783;28;20637;-80
2023/01/14 20:35:32;;;;;;;0.90;0.90;;;11.10;40.20;;;;;;10437004;28;20233;-80
2023/01/14 20:40:37;;;;;;;1.53;1.30;;;11.20;40.40;;;;;;10433414;28;20323;-80
2023/01/14 20:45:40;;;;;;;0.80;0.80;;;11.20;40.80;;;;;;10437797;28;20248;-80
2023/01/14 20:50:44;;;;;;;1.53;1.10;;;11.40;40.50;;;;;;10434154;28;20267;-80
2023/01/14 20:55:51;;;;;;;1.27;0.97;;;11.50;40.40;;;;;;10437395;28;20240;-78
2023/01/14 21:00:56;;;;;;;0.97;0.97;;;11.60;40.40;;;;;;10443818;28;20315;-81
2023/01/14 21:06:01;;;;;;;0.73;0.73;;;11.80;40.30;;;;;;10442183;28;20282;-81
2023/01/14 21:11:08;;;;;;;2.77;1.00;;;11.90;39.90;;;;;;10436095;28;20271;-81
2023/01/14 21:26:56;;;;;;;1.77;0.90;;;12.30;39.50;;;;;;10441383;28;20236;-82
2023/01/14 21:32:05;;;;;;;0.90;0.90;;;12.40;39.30;;;;;;10437464;28;20229;-82
2023/01/14 21:37:09;;;;;;;0.77;0.77;;;12.40;39.10;;;;;;10433571;28;20234;-81
2023/01/14 21:47:34;;;;;;;0.80;0.80;;;12.50;39.00;;;;;;10432707;28;20232;-82
2023/01/14 21:52:37;;;;;;;0.90;0.90;;;12.60;39.10;;;;;;10437335;28;20242;-81
2023/01/14 21:57:42;;;;;;;0.80;0.73;;;12.70;39.10;;;;;;10432977;28;20235;-81
2023/01/14 22:02:45;;;;;;;0.90;0.80;;;12.70;38.90;;;;;;10432669;28;20251;-81
2023/01/14 22:07:52;;;;;;;0.80;0.80;;;12.70;38.80;;;;;;10440229;28;20231;-81
2023/01/14 22:12:57;;;;;;;1.67;1.20;;;12.80;38.70;;;;;;10434865;28;20225;-82
2023/01/14 22:18:01;;;;;;;1.03;1.00;;;12.80;38.60;;;;;;10433907;28;20229;-81
2023/01/14 22:23:04;;;;;;;1.30;0.93;;;12.90;38.70;;;;;;10443970;28;20225;-81
2023/01/14 22:28:09;;;;;;;0.70;0.70;;;13.00;38.60;;;;;;10428365;28;20241;-81
2023/01/14 22:33:12;;;;;;;1.00;0.90;;;13.10;38.40;;;;;;10433824;28;20268;-81
2023/01/14 22:38:15;;;;;;;0.90;0.80;;;13.10;38.50;;;;;;10434579;28;20775;-82
2023/01/14 22:43:20;;;;;;;1.33;0.90;;;13.20;38.10;;;;;;10440627;28;20283;-81
2023/01/14 22:48:23;;;;;;;1.07;0.70;;;13.20;38.00;;;;;;10438356;28;20233;-82
2023/01/14 22:53:27;;;;;;;0.60;0.60;;;13.20;37.90;;;;;;10433848;28;20250;-81
2023/01/14 22:58:33;;;;;;;1.40;0.60;;;13.30;38.10;;;;;;10438570;28;20894;-82
2023/01/14 23:03:36;;;;;;;0.70;0.70;;;13.40;38.00;;;;;;10436008;28;20240;-81
2023/01/14 23:08:40;;;;;;;0.70;0.70;;;13.40;38.00;;;;;;10440712;28;20300;-81
2023/01/14 23:13:47;;;;;;;0.70;0.70;;;13.40;38.00;;;;;;10437860;28;20310;-81
2023/01/14 23:18:52;;;;;;;0.90;0.90;;;13.40;37.70;;;;;;10441542;28;20291;-81
2023/01/14 23:23:56;;;;;;;1.17;1.07;;;13.40;37.80;;;;;;10429959;28;20267;-81
2023/01/14 23:29:00;;;;;;;0.90;0.90;;;13.40;37.60;;;;;;10444161;28;20601;-82
2023/01/14 23:34:04;;;;;;;0.70;0.70;;;13.50;37.30;;;;;;10436564;28;20228;-81
2023/01/14 23:39:07;;;;;;;1.00;0.90;;;13.50;37.60;;;;;;10433407;28;20280;-82
2023/01/14 23:44:14;;;;;;;1.03;0.80;;;13.50;37.40;;;;;;10431902;28;20283;-81
2023/01/14 23:49:17;;;;;;;0.80;0.80;;;13.50;37.00;;;;;;10432661;28;20230;-81
2023/01/14 23:54:20;;;;;;;0.83;0.83;;;13.50;37.30;;;;;;10437493;28;20244;-81
2023/01/14 23:59:25;;;;;;;0.80;0.77;;;13.60;37.00;;;;;;10435245;28;20237;-81
